Time;durP1;ratioP1;P1;durP2;ratioP2;P2;SDS_P1;SDS_P2;PMS_P1;PMS_P2;Temp;Humidity;BMP_temperature;BMP_pressure;BME280_temperature;BME280_humidity;BME280_pressure;Samples;Min_cycle;Max_cycle;Signal;HPM_P1;HPM_P2
2021/01/04 00:00:52;;;;;;;5.05;2.97;;;4.40;99.90;;;;;;5072078;28;20369;-70
2021/01/04 00:03:36;;;;;;;6.70;3.63;;;4.40;99.90;;;;;;5072474;28;20101;-69
2021/01/04 00:06:38;;;;;;;4.55;2.83;;;4.40;99.90;;;;;;5074547;28;20027;-70
2021/01/04 00:09:24;;;;;;;5.28;2.72;;;4.30;99.90;;;;;;5072494;28;20035;-70
2021/01/04 00:12:17;;;;;;;4.18;3.00;;;4.30;99.90;;;;;;5072569;28;20074;-71
2021/01/04 00:14:56;;;;;;;6.70;3.17;;;4.30;99.90;;;;;;5071887;28;20053;-71
2021/01/04 00:17:39;;;;;;;7.95;3.08;;;4.40;99.90;;;;;;5072599;28;20162;-70
2021/01/04 00:20:17;;;;;;;4.80;2.97;;;4.40;99.90;;;;;;5072339;28;20488;-70
2021/01/04 00:23:07;;;;;;;6.13;3.38;;;4.40;99.90;;;;;;5071901;28;20074;-70
2021/01/04 00:25:36;;;;;;;6.13;3.28;;;4.40;99.90;;;;;;5072217;28;20041;-70
2021/01/04 00:28:08;;;;;;;4.30;2.70;;;4.40;99.90;;;;;;5072126;28;20036;-70
2021/01/04 00:30:52;;;;;;;5.70;3.20;;;4.40;99.90;;;;;;5071942;28;20089;-69
2021/01/04 00:33:41;;;;;;;5.05;2.85;;;4.30;99.90;;;;;;5071371;28;20522;-70
2021/01/04 00:36:29;;;;;;;5.55;2.90;;;4.30;99.90;;;;;;5072892;28;20115;-70
2021/01/04 00:39:04;;;;;;;5.05;3.00;;;4.30;99.90;;;;;;5072198;28;20404;-69
2021/01/04 00:41:56;;;;;;;5.25;2.90;;;4.30;99.90;;;;;;5071604;28;20534;-71
2021/01/04 00:44:33;;;;;;;6.15;3.20;;;4.30;99.90;;;;;;5072114;28;20474;-69
2021/01/04 00:47:09;;;;;;;6.15;3.35;;;4.30;99.90;;;;;;5070593;28;20127;-70
2021/01/04 00:49:37;;;;;;;7.75;3.38;;;4.30;99.90;;;;;;5071616;28;20385;-69
2021/01/04 00:52:49;;;;;;;4.05;2.80;;;4.30;99.90;;;;;;5071682;28;20036;-69
2021/01/04 00:55:14;;;;;;;6.25;3.15;;;4.30;99.90;;;;;;5053587;28;20036;-70
2021/01/04 00:57:59;;;;;;;4.75;3.20;;;4.30;99.90;;;;;;5056420;28;20032;-70
2021/01/04 01:00:58;;;;;;;7.03;3.67;;;4.30;99.90;;;;;;5071833;28;20025;-69
2021/01/04 01:03:50;;;;;;;6.00;3.65;;;4.40;99.90;;;;;;5071765;28;20028;-71
2021/01/04 01:06:57;;;;;;;5.63;3.30;;;4.40;99.90;;;;;;5071562;28;20033;-69
2021/01/04 01:09:23;;;;;;;8.20;4.47;;;4.40;99.90;;;;;;5071820;28;20016;-69
2021/01/04 01:11:51;;;;;;;5.55;3.38;;;4.30;99.90;;;;;;5073269;28;20059;-69
2021/01/04 01:14:39;;;;;;;6.53;3.75;;;4.30;99.90;;;;;;5071608;28;20098;-70
2021/01/04 01:17:28;;;;;;;;;;;4.30;99.90;;;;;;5072049;28;20029;-70
2021/01/04 01:19:57;;;;;;;6.75;3.63;;;4.20;99.90;;;;;;5068226;28;19908;-69
2021/01/04 01:22:35;;;;;;;6.13;3.28;;;4.30;99.90;;;;;;5071358;28;20033;-70
2021/01/04 01:25:12;;;;;;;12.20;5.47;;;4.30;99.90;;;;;;5070591;28;20565;-69
2021/01/04 01:28:02;;;;;;;4.82;3.28;;;4.30;99.90;;;;;;5071409;28;20048;-69
2021/01/04 01:30:40;;;;;;;5.03;3.33;;;4.30;99.90;;;;;;5071571;28;20432;-70
2021/01/04 01:33:06;;;;;;;7.63;3.20;;;4.30;99.90;;;;;;5073041;28;20435;-69
2021/01/04 01:35:41;;;;;;;7.32;3.85;;;4.30;99.90;;;;;;5051564;28;20498;-69
2021/01/04 01:38:32;;;;;;;5.55;3.03;;;4.30;99.90;;;;;;5067374;28;20098;-69
2021/01/04 01:41:19;;;;;;;5.53;3.28;;;4.30;99.90;;;;;;5071561;28;20028;-69
2021/01/04 01:44:09;;;;;;;;;;;4.40;99.90;;;;;;5071757;28;20045;-68
2021/01/04 01:46:44;;;;;;;5.80;3.10;;;4.40;99.90;;;;;;5058488;28;19916;-68
2021/01/04 01:49:20;;;;;;;6.03;3.40;;;4.30;99.90;;;;;;5058673;28;20040;-70
2021/01/04 01:52:12;;;;;;;7.57;3.60;;;4.30;99.90;;;;;;5072240;28;20045;-71
2021/01/04 01:55:03;;;;;;;5.60;3.10;;;4.30;99.90;;;;;;5073377;28;20507;-69
2021/01/04 01:57:47;;;;;;;4.68;2.90;;;4.20;99.90;;;;;;5073755;28;20093;-69
2021/01/04 02:00:26;;;;;;;6.20;3.17;;;4.20;99.90;;;;;;5075058;28;20031;-71
2021/01/04 02:03:12;;;;;;;4.72;2.92;;;4.30;99.90;;;;;;5076169;28;20450;-69
2021/01/04 02:06:06;;;;;;;5.93;3.35;;;4.20;99.90;;;;;;5074861;28;20445;-69
2021/01/04 02:08:38;;;;;;;6.03;3.78;;;4.20;99.90;;;;;;5074650;28;20044;-69
2021/01/04 02:11:10;;;;;;;7.47;3.58;;;4.10;99.90;;;;;;5074355;28;20541;-69
2021/01/04 02:13:54;;;;;;;5.43;2.97;;;4.20;99.90;;;;;;5074575;28;20066;-69
2021/01/04 02:16:28;;;;;;;5.07;3.05;;;4.10;99.90;;;;;;5074584;28;20028;-69
2021/01/04 02:19:26;;;;;;;7.65;3.53;;;4.10;99.90;;;;;;5074402;28;20086;-70
2021/01/04 02:22:24;;;;;;;6.30;3.15;;;4.20;99.90;;;;;;5073432;28;20037;-69
2021/01/04 02:24:50;;;;;;;7.65;3.47;;;4.20;99.90;;;;;;5074206;28;20055;-69
2021/01/04 02:27:32;;;;;;;6.32;3.60;;;4.20;99.90;;;;;;5072600;28;20469;-70
2021/01/04 02:29:58;;;;;;;5.85;3.10;;;4.20;99.90;;;;;;5075837;28;20021;-70
2021/01/04 02:32:24;;;;;;;6.25;3.75;;;4.20;99.90;;;;;;5074183;28;20457;-70
2021/01/04 02:34:55;;;;;;;6.40;3.65;;;4.20;99.90;;;;;;5074181;28;20037;-69
2021/01/04 02:37:23;;;;;;;7.53;3.85;;;4.30;99.90;;;;;;5073904;28;20044;-70
2021/01/04 02:40:01;;;;;;;8.05;3.70;;;4.30;99.90;;;;;;5074204;28;20051;-69
2021/01/04 02:42:32;;;;;;;6.30;3.65;;;4.30;99.90;;;;;;5073995;28;20409;-69
2021/01/04 02:45:01;;;;;;;5.03;3.20;;;4.30;99.90;;;;;;5075537;28;20028;-69
2021/01/04 02:47:38;;;;;;;7.68;4.28;;;4.30;99.90;;;;;;5073973;28;20037;-69
2021/01/04 02:50:36;;;;;;;8.50;4.38;;;4.30;99.90;;;;;;5073838;28;20080;-69
2021/01/04 02:53:25;;;;;;;6.63;3.95;;;4.20;99.90;;;;;;5073766;28;20519;-70
2021/01/04 02:56:28;;;;;;;7.55;3.65;;;4.20;99.90;;;;;;5073796;28;20098;-70
2021/01/04 02:59:23;;;;;;;8.30;4.15;;;4.20;99.90;;;;;;5072530;28;20033;-70
2021/01/04 03:02:02;;;;;;;7.03;4.05;;;4.20;99.90;;;;;;5072807;28;20070;-69
2021/01/04 03:04:29;;;;;;;7.47;3.80;;;4.20;99.90;;;;;;5073472;28;20044;-69
2021/01/04 03:07:06;;;;;;;7.30;4.10;;;4.20;99.90;;;;;;5073558;28;20115;-69
2021/01/04 03:09:33;;;;;;;7.90;3.97;;;4.20;99.90;;;;;;5073502;28;20343;-69
2021/01/04 03:12:10;;;;;;;5.80;3.60;;;4.20;99.90;;;;;;5074981;28;20036;-69
2021/01/04 03:14:49;;;;;;;7.32;3.78;;;4.30;99.90;;;;;;5073877;28;20416;-69
2021/01/04 03:17:33;;;;;;;8.20;4.25;;;4.30;99.90;;;;;;5073241;28;20115;-69
2021/01/04 03:20:02;;;;;;;8.10;4.25;;;4.30;99.90;;;;;;5073141;28;20040;-71
2021/01/04 03:22:27;;;;;;;6.40;4.03;;;4.30;99.90;;;;;;5072199;28;20271;-69
2021/01/04 03:24:53;;;;;;;6.82;3.90;;;4.30;99.90;;;;;;5072198;28;20032;-70
2021/01/04 03:27:24;;;;;;;7.75;4.28;;;4.40;99.90;;;;;;5073330;28;20053;-69
2021/01/04 03:29:50;;;;;;;7.75;4.45;;;4.30;99.90;;;;;;5074634;28;20013;-70
2021/01/04 03:32:16;;;;;;;6.10;3.67;;;4.20;99.90;;;;;;5073046;28;20029;-69
2021/01/04 03:34:42;;;;;;;8.23;4.60;;;4.20;99.90;;;;;;5060036;28;20041;-70
2021/01/04 03:37:08;;;;;;;11.23;4.55;;;4.30;99.90;;;;;;5060828;28;20063;-69
2021/01/04 03:39:33;;;;;;;6.78;4.25;;;4.30;99.90;;;;;;5068552;28;20059;-70
2021/01/04 03:42:00;;;;;;;8.68;4.60;;;4.50;99.90;;;;;;5054383;28;20025;-70
2021/01/04 03:44:27;;;;;;;7.53;4.45;;;4.40;99.90;;;;;;5071913;28;20043;-70
2021/01/04 03:46:53;;;;;;;8.93;4.20;;;4.30;99.90;;;;;;5070776;28;20028;-69
2021/01/04 03:49:19;;;;;;;9.55;4.32;;;4.40;99.90;;;;;;5072516;28;20039;-70
2021/01/04 03:51:56;;;;;;;8.50;4.85;;;4.40;99.90;;;;;;5072639;28;20111;-70
2021/01/04 03:54:23;;;;;;;9.52;4.90;;;4.40;99.90;;;;;;5072426;28;20525;-69
2021/01/04 03:56:49;;;;;;;9.40;4.32;;;4.40;99.90;;;;;;5074199;28;20028;-69
2021/01/04 03:59:15;;;;;;;8.85;4.60;;;4.40;99.90;;;;;;5072496;28;20025;-69
2021/01/04 04:01:50;;;;;;;8.23;3.97;;;4.40;99.90;;;;;;5072392;28;20032;-69
2021/01/04 04:04:16;;;;;;;12.00;4.55;;;4.40;99.90;;;;;;5072681;28;20389;-70
2021/01/04 04:06:42;;;;;;;9.50;4.65;;;4.60;99.90;;;;;;5072322;28;20119;-69
2021/01/04 04:09:09;;;;;;;10.48;5.38;;;4.60;99.90;;;;;;5073942;28;20082;-69
2021/01/04 04:11:35;;;;;;;11.48;5.45;;;4.60;99.90;;;;;;5072578;28;20036;-70
2021/01/04 04:14:01;;;;;;;9.48;5.05;;;4.60;99.90;;;;;;5072069;28;20047;-69
2021/01/04 04:16:27;;;;;;;10.85;4.88;;;4.60;99.90;;;;;;5072140;28;20456;-68
2021/01/04 04:18:52;;;;;;;10.93;5.40;;;4.60;99.90;;;;;;5072536;28;20033;-69
2021/01/04 04:21:18;;;;;;;11.18;5.05;;;4.70;99.90;;;;;;5072107;28;20099;-70
2021/01/04 04:23:44;;;;;;;10.35;5.35;;;4.70;99.90;;;;;;5073648;28;20039;-68
2021/01/04 04:26:24;;;;;;;13.57;5.82;;;4.70;99.90;;;;;;5072110;28;20098;-70
2021/01/04 04:28:50;;;;;;;10.30;5.43;;;4.80;99.90;;;;;;5071029;28;20028;-70
2021/01/04 04:31:16;;;;;;;10.07;5.55;;;4.70;99.90;;;;;;5072124;28;20473;-70
2021/01/04 04:33:42;;;;;;;11.68;5.97;;;4.80;99.90;;;;;;5072282;28;20037;-70
2021/01/04 04:36:10;;;;;;;16.05;5.93;;;4.70;99.90;;;;;;5073539;28;20374;-70
2021/01/04 04:38:35;;;;;;;8.18;5.10;;;4.80;99.90;;;;;;5071775;28;20358;-69
2021/01/04 04:41:02;;;;;;;9.90;6.80;;;4.70;99.90;;;;;;5071585;28;20036;-70
2021/01/04 04:43:37;;;;;;;12.82;5.82;;;4.80;99.90;;;;;;5071897;28;20083;-70
2021/01/04 04:46:22;;;;;;;9.00;4.72;;;4.80;99.90;;;;;;5071934;28;20033;-69
2021/01/04 04:48:54;;;;;;;9.35;5.25;;;4.70;99.90;;;;;;5071702;28;20473;-70
2021/01/04 04:52:00;;;;;;;9.40;5.03;;;4.80;99.90;;;;;;5070555;28;20043;-70
2021/01/04 04:54:35;;;;;;;9.43;4.85;;;4.80;99.90;;;;;;5072074;28;20302;-70
2021/01/04 04:57:09;;;;;;;12.38;4.72;;;4.70;99.90;;;;;;5073364;28;20031;-69
2021/01/04 05:00:08;;;;;;;9.60;4.88;;;4.70;99.90;;;;;;5071785;28;20119;-69
2021/01/04 05:02:49;;;;;;;9.88;5.38;;;4.80;99.90;;;;;;5071813;28;20358;-69
2021/01/04 05:05:20;;;;;;;9.07;4.93;;;4.80;99.90;;;;;;5071787;28;20044;-70
2021/01/04 05:08:00;;;;;;;13.27;5.95;;;4.80;99.90;;;;;;5071796;28;20114;-69
2021/01/04 05:10:32;;;;;;;9.63;4.97;;;4.80;99.90;;;;;;5071707;28;20111;-69
2021/01/04 05:13:01;;;;;;;8.65;5.15;;;4.70;99.90;;;;;;5071753;28;20037;-70
2021/01/04 05:15:51;;;;;;;11.20;5.40;;;4.70;99.90;;;;;;5070624;28;20025;-69
2021/01/04 05:18:42;;;;;;;10.85;5.55;;;4.70;99.90;;;;;;5070167;28;20064;-71
2021/01/04 05:21:44;;;;;;;10.50;5.43;;;4.70;99.90;;;;;;5063545;28;20028;-70
2021/01/04 05:24:28;;;;;;;8.73;5.20;;;4.80;99.90;;;;;;5045484;28;20033;-73
2021/01/04 05:27:32;;;;;;;8.32;4.55;;;4.80;99.90;;;;;;5074434;28;20024;-69
2021/01/04 05:30:29;;;;;;;8.90;4.72;;;4.70;99.90;;;;;;5055797;28;20037;-70
2021/01/04 05:33:01;;;;;;;8.35;4.70;;;4.70;99.90;;;;;;5055076;28;20033;-69
2021/01/04 05:35:28;;;;;;;8.68;4.78;;;4.70;99.90;;;;;;5073980;28;20127;-70
2021/01/04 05:37:56;;;;;;;7.88;4.25;;;4.70;99.90;;;;;;5074027;28;20378;-70
2021/01/04 05:40:46;;;;;;;7.82;4.70;;;4.70;99.90;;;;;;5074125;28;20378;-70
2021/01/04 05:43:33;;;;;;;8.82;5.10;;;4.80;99.90;;;;;;5074913;28;20052;-69
2021/01/04 05:46:07;;;;;;;8.63;5.00;;;4.80;99.90;;;;;;5074963;28;20056;-70
2021/01/04 05:49:00;;;;;;;9.52;4.72;;;4.80;99.90;;;;;;5075230;28;20036;-70
2021/01/04 05:51:49;;;;;;;9.77;4.80;;;4.80;99.90;;;;;;5075043;28;20102;-69
2021/01/04 05:54:26;;;;;;;13.52;4.57;;;4.80;99.90;;;;;;5074858;28;20472;-70
2021/01/04 05:57:13;;;;;;;9.77;4.83;;;4.80;99.90;;;;;;5076427;28;20036;-70
2021/01/04 05:59:51;;;;;;;7.60;4.28;;;4.80;99.90;;;;;;5091006;28;20040;-69
2021/01/04 06:02:27;;;;;;;10.95;4.70;;;4.80;99.90;;;;;;5074640;28;20078;-70
2021/01/04 06:04:53;;;;;;;9.60;4.70;;;4.90;99.90;;;;;;5074607;28;20040;-70
2021/01/04 06:07:19;;;;;;;8.20;4.82;;;4.90;99.90;;;;;;5074661;28;20033;-70
2021/01/04 06:09:57;;;;;;;8.35;4.68;;;5.00;99.90;;;;;;5074787;28;20350;-70
2021/01/04 06:12:33;;;;;;;8.32;4.10;;;5.00;99.90;;;;;;5074728;28;20074;-71
2021/01/04 06:14:59;;;;;;;8.60;4.80;;;5.10;99.90;;;;;;5076033;28;20024;-69
2021/01/04 06:17:42;;;;;;;9.30;4.47;;;5.10;99.90;;;;;;5074352;28;20052;-70
2021/01/04 06:20:38;;;;;;;7.35;4.50;;;5.10;99.90;;;;;;5074419;28;20183;-70
2021/01/04 06:23:20;;;;;;;8.73;4.18;;;5.10;99.90;;;;;;5074486;28;20400;-69
2021/01/04 06:25:56;;;;;;;8.35;4.50;;;5.20;99.90;;;;;;5074124;28;20040;-71
2021/01/04 06:28:22;;;;;;;8.38;4.18;;;5.20;99.90;;;;;;5074365;28;20461;-69
2021/01/04 06:31:02;;;;;;;10.90;5.00;;;5.30;99.90;;;;;;5074212;28;20033;-71
2021/01/04 06:33:29;;;;;;;13.27;6.03;;;5.30;99.90;;;;;;5074364;28;20036;-71
2021/01/04 06:36:22;;;;;;;9.90;5.50;;;5.30;99.90;;;;;;5075450;28;20056;-71
2021/01/04 06:38:48;;;;;;;12.30;5.57;;;5.40;99.90;;;;;;5072010;28;20285;-70
2021/01/04 06:41:30;;;;;;;9.93;4.57;;;5.40;99.90;;;;;;5074122;28;20382;-70
2021/01/04 06:44:06;;;;;;;7.80;4.35;;;5.40;99.90;;;;;;5074040;28;20052;-71
2021/01/04 06:46:41;;;;;;;9.20;3.95;;;5.30;99.90;;;;;;5074043;28;20098;-72
2021/01/04 06:49:25;;;;;;;8.63;3.88;;;5.30;99.90;;;;;;5072667;28;20036;-70
2021/01/04 06:52:12;;;;;;;8.23;3.95;;;5.30;99.90;;;;;;5073850;28;20450;-71
2021/01/04 06:55:06;;;;;;;6.88;3.42;;;5.30;99.90;;;;;;5073747;28;20469;-70
2021/01/04 06:58:02;;;;;;;6.18;3.50;;;5.30;99.90;;;;;;5073478;28;20040;-71
2021/01/04 07:00:37;;;;;;;7.47;3.90;;;5.30;99.90;;;;;;5073570;28;20020;-72
2021/01/04 07:03:09;;;;;;;6.97;3.00;;;5.30;99.90;;;;;;5074999;28;20029;-71
2021/01/04 07:06:11;;;;;;;6.22;3.63;;;5.20;99.90;;;;;;5073748;28;20025;-70
2021/01/04 07:08:55;;;;;;;6.68;3.42;;;5.20;99.90;;;;;;5073731;28;20462;-71
2021/01/04 07:11:38;;;;;;;4.60;3.05;;;5.20;99.90;;;;;;5073320;28;20460;-71
2021/01/04 07:14:41;;;;;;;6.15;3.00;;;5.30;99.90;;;;;;5071936;28;20497;-72
2021/01/04 07:17:19;;;;;;;6.00;3.05;;;5.20;99.90;;;;;;5073349;28;20489;-71
2021/01/04 07:20:04;;;;;;;;;;;5.10;99.90;;;;;;5073673;28;20107;-70
2021/01/04 07:22:51;;;;;;;3.78;2.55;;;5.10;99.90;;;;;;5073018;28;19912;-71
2021/01/04 07:25:36;;;;;;;4.80;3.05;;;5.10;99.90;;;;;;5072916;28;20114;-70
2021/01/04 07:28:29;;;;;;;6.80;3.40;;;5.10;99.90;;;;;;5072665;28;20060;-69
2021/01/04 07:31:36;;;;;;;5.47;2.78;;;5.10;99.90;;;;;;5073006;28;20036;-70
2021/01/04 07:34:19;;;;;;;5.13;2.97;;;5.20;99.90;;;;;;5072980;28;20090;-69
2021/01/04 07:36:53;;;;;;;6.72;2.88;;;5.20;99.90;;;;;;5072612;28;20037;-69
2021/01/04 07:39:35;;;;;;;6.32;3.10;;;5.20;99.90;;;;;;5072766;28;20028;-69
2021/01/04 07:42:19;;;;;;;3.72;2.50;;;5.20;99.90;;;;;;5074090;28;20033;-69
2021/01/04 07:45:23;;;;;;;5.38;2.90;;;5.20;99.90;;;;;;5072890;28;20078;-68
2021/01/04 07:48:13;;;;;;;5.53;2.83;;;5.20;99.90;;;;;;5072856;28;20070;-68
2021/01/04 07:50:58;;;;;;;4.00;2.63;;;5.20;99.90;;;;;;5072095;28;20048;-70
2021/01/04 07:53:58;;;;;;;4.90;2.78;;;5.20;99.90;;;;;;5072645;28;20036;-69
2021/01/04 07:56:55;;;;;;;6.65;2.80;;;5.30;99.90;;;;;;5072468;28;20373;-70
2021/01/04 07:59:51;;;;;;;4.03;2.40;;;5.30;99.90;;;;;;5072231;28;20116;-69
2021/01/04 08:02:45;;;;;;;5.87;2.67;;;5.20;99.90;;;;;;5072411;28;20358;-71
2021/01/04 08:05:35;;;;;;;3.92;2.35;;;5.20;99.90;;;;;;5071394;28;20059;-71
2021/01/04 08:08:28;;;;;;;4.32;2.60;;;5.10;99.90;;;;;;5072245;28;20029;-72
2021/01/04 08:11:07;;;;;;;4.13;2.45;;;5.10;99.90;;;;;;5056710;28;20029;-71
2021/01/04 08:13:45;;;;;;;4.35;2.50;;;5.00;99.90;;;;;;5052318;28;20029;-72
2021/01/04 08:16:31;;;;;;;4.85;2.60;;;5.00;99.90;;;;;;5059656;28;20040;-70
2021/01/04 08:18:58;;;;;;;4.72;2.53;;;5.00;99.90;;;;;;5072320;28;20044;-70
2021/01/04 08:21:36;;;;;;;2.92;1.95;;;5.00;99.90;;;;;;5072132;28;20017;-71
2021/01/04 08:24:04;;;;;;;3.97;2.50;;;5.00;99.90;;;;;;5073823;28;20040;-71
2021/01/04 08:26:47;;;;;;;4.70;2.67;;;5.00;99.90;;;;;;5071845;28;20028;-71
2021/01/04 08:29:31;;;;;;;5.18;2.83;;;5.00;99.90;;;;;;5070840;28;20043;-71
2021/01/04 08:32:16;;;;;;;4.55;2.35;;;5.00;99.90;;;;;;5072137;28;20036;-73
2021/01/04 08:34:43;;;;;;;3.92;2.22;;;5.10;99.90;;;;;;5072119;28;20039;-73
2021/01/04 08:37:11;;;;;;;3.95;2.50;;;5.00;99.90;;;;;;5070819;28;20058;-75
2021/01/04 08:39:50;;;;;;;4.22;2.38;;;5.00;99.90;;;;;;5072066;28;20354;-72
2021/01/04 08:42:20;;;;;;;5.75;2.60;;;5.10;99.90;;;;;;5071763;28;20024;-72
2021/01/04 08:45:16;;;;;;;4.60;2.60;;;5.10;99.90;;;;;;5072392;28;20020;-72
2021/01/04 08:47:52;;;;;;;4.38;2.55;;;5.00;99.90;;;;;;5071226;28;20032;-72
2021/01/04 08:50:30;;;;;;;4.50;2.72;;;5.00;99.90;;;;;;5071824;28;20029;-71
2021/01/04 08:53:07;;;;;;;;;;;5.10;99.90;;;;;;5072233;28;20047;-70
2021/01/04 08:55:34;;;;;;;4.30;2.45;;;5.10;99.90;;;;;;5070915;28;20053;-71
2021/01/04 08:58:13;;;;;;;4.35;2.35;;;5.10;99.90;;;;;;5071693;28;20032;-73
2021/01/04 09:00:38;;;;;;;3.72;2.17;;;5.10;99.90;;;;;;5072634;28;20089;-71
2021/01/04 09:03:16;;;;;;;5.70;2.53;;;5.20;99.90;;;;;;5077497;28;20021;-71
2021/01/04 09:05:42;;;;;;;4.90;2.30;;;5.30;99.90;;;;;;5075143;28;20205;-72
2021/01/04 09:08:10;;;;;;;4.43;2.33;;;5.30;99.90;;;;;;5075633;28;20112;-72
2021/01/04 09:10:39;;;;;;;5.07;2.17;;;5.30;99.90;;;;;;5075765;28;20048;-71
2021/01/04 09:13:32;;;;;;;3.83;2.50;;;5.30;99.90;;;;;;5075481;28;20041;-75
2021/01/04 09:16:17;;;;;;;3.40;2.38;;;5.20;99.90;;;;;;5075390;28;20032;-72
2021/01/04 09:18:51;;;;;;;3.85;2.28;;;5.00;99.70;;;;;;5075567;28;20052;-72
2021/01/04 09:21:37;;;;;;;3.08;2.13;;;5.10;99.90;;;;;;5076322;28;20028;-78
2021/01/04 09:24:23;;;;;;;3.72;2.28;;;5.10;99.90;;;;;;5076939;28;20036;-72
2021/01/04 09:26:57;;;;;;;2.95;1.92;;;5.20;99.90;;;;;;5075759;28;20089;-72
2021/01/04 09:29:26;;;;;;;3.05;2.03;;;5.10;99.90;;;;;;5075447;28;20044;-71
2021/01/04 09:32:05;;;;;;;7.05;2.70;;;5.00;99.90;;;;;;5075193;28;20099;-71
2021/01/04 09:34:31;;;;;;;3.28;2.22;;;5.00;99.90;;;;;;5075602;28;20025;-72
2021/01/04 09:37:07;;;;;;;5.03;2.50;;;5.00;99.90;;;;;;5074933;28;20063;-71
2021/01/04 09:39:35;;;;;;;3.33;2.08;;;5.00;99.90;;;;;;5074958;28;20036;-71
2021/01/04 09:42:03;;;;;;;2.95;2.30;;;4.90;99.90;;;;;;5076415;28;20025;-73
2021/01/04 09:44:30;;;;;;;3.15;1.88;;;4.90;99.90;;;;;;5075010;28;20024;-72
2021/01/04 09:47:22;;;;;;;2.75;2.00;;;4.80;99.90;;;;;;5075097;28;20037;-71
2021/01/04 09:49:54;;;;;;;7.25;2.17;;;4.90;99.90;;;;;;5074896;28;20021;-72
2021/01/04 09:52:52;;;;;;;4.30;2.50;;;5.00;99.90;;;;;;5074855;28;20033;-72
2021/01/04 09:55:21;;;;;;;;;;;5.00;99.90;;;;;;5074653;28;20056;-71
2021/01/04 09:57:48;;;;;;;4.38;2.25;;;5.00;99.90;;;;;;5075024;28;19912;-81
2021/01/04 10:00:23;;;;;;;3.43;2.10;;;5.00;99.90;;;;;;5073692;28;20028;-70
2021/01/04 10:03:10;;;;;;;4.20;2.65;;;5.00;99.90;;;;;;5076221;28;20025;-71
2021/01/04 10:05:44;;;;;;;4.35;2.65;;;5.00;99.90;;;;;;5073965;28;20033;-80
2021/01/04 10:08:14;;;;;;;3.70;2.33;;;5.10;99.90;;;;;;5073416;28;20025;-72
2021/01/04 10:10:50;;;;;;;3.47;2.40;;;5.10;99.90;;;;;;5075191;28;20112;-83
2021/01/04 10:13:16;;;;;;;3.88;2.28;;;5.20;99.90;;;;;;5074004;28;20094;-85
2021/01/04 10:15:42;;;;;;;3.60;2.25;;;5.20;99.90;;;;;;5074740;28;20296;-84
2021/01/04 10:18:31;;;;;;;4.20;2.90;;;5.00;99.90;;;;;;5076326;28;20040;-82
2021/01/04 10:20:57;;;;;;;4.75;2.75;;;5.10;99.90;;;;;;5055020;28;20049;-79
2021/01/04 10:23:45;;;;;;;5.32;2.42;;;5.20;99.90;;;;;;5054179;28;20091;-77
2021/01/04 10:26:11;;;;;;;6.43;2.47;;;5.20;99.90;;;;;;5054375;28;20029;-80
2021/01/04 10:28:39;;;;;;;8.13;2.95;;;5.30;99.90;;;;;;5054394;28;20120;-79
2021/01/04 10:31:04;;;;;;;4.40;2.40;;;5.30;99.90;;;;;;5054427;28;20129;-76
2021/01/04 10:33:34;;;;;;;7.22;2.75;;;5.30;99.90;;;;;;5053254;28;20037;-78
2021/01/04 10:36:17;;;;;;;16.27;6.93;;;5.20;99.90;;;;;;5054791;28;20022;-78
2021/01/04 10:39:02;;;;;;;8.25;4.18;;;5.20;99.90;;;;;;5053275;28;20036;-72
2021/01/04 10:41:30;;;;;;;4.68;2.60;;;5.10;99.90;;;;;;5054211;28;20037;-74
2021/01/04 10:44:11;;;;;;;3.78;2.30;;;5.10;99.90;;;;;;5054708;28;20049;-79
2021/01/04 10:46:43;;;;;;;4.45;2.83;;;5.10;99.90;;;;;;5053814;28;20478;-75
2021/01/04 10:49:28;;;;;;;5.88;3.13;;;5.10;99.90;;;;;;5057498;28;20094;-72
2021/01/04 10:51:55;;;;;;;4.97;2.65;;;5.10;99.90;;;;;;5072107;28;20493;-76
2021/01/04 10:54:42;;;;;;;7.07;3.00;;;5.20;99.90;;;;;;5073939;28;20136;-78
2021/01/04 10:57:34;;;;;;;3.72;2.25;;;5.10;99.90;;;;;;5075232;28;20028;-77
2021/01/04 11:00:06;;;;;;;5.97;3.35;;;5.10;99.90;;;;;;5074207;28;20056;-73
2021/01/04 11:02:45;;;;;;;3.35;2.35;;;5.10;99.90;;;;;;5073529;28;20041;-71
2021/01/04 11:05:13;;;;;;;4.25;2.63;;;5.00;99.90;;;;;;5073559;28;20082;-76
2021/01/04 11:07:39;;;;;;;;;;;4.90;99.90;;;;;;5073547;28;20033;-74
2021/01/04 11:10:24;;;;;;;4.63;2.80;;;5.00;99.90;;;;;;5073569;28;19916;-74
2021/01/04 11:12:54;;;;;;;4.03;2.15;;;5.00;99.90;;;;;;5073467;28;20033;-77
2021/01/04 11:15:36;;;;;;;6.07;2.70;;;5.10;99.90;;;;;;5073329;28;20021;-76
2021/01/04 11:18:10;;;;;;;4.40;2.75;;;5.10;99.90;;;;;;5073824;28;20025;-77
2021/01/04 11:20:38;;;;;;;3.15;2.28;;;5.20;99.90;;;;;;5072531;28;20032;-72
2021/01/04 11:23:09;;;;;;;7.53;2.65;;;5.20;99.90;;;;;;5072038;28;20062;-73
2021/01/04 11:25:36;;;;;;;9.30;3.58;;;5.20;99.90;;;;;;5073173;28;20040;-72
2021/01/04 11:28:02;;;;;;;5.03;2.88;;;5.20;99.90;;;;;;5073497;28;20174;-72
2021/01/04 11:30:29;;;;;;;6.53;2.92;;;5.30;99.90;;;;;;5073369;28;20033;-71
2021/01/04 11:33:00;;;;;;;4.95;2.67;;;5.30;99.90;;;;;;5074659;28;20059;-74
2021/01/04 11:35:26;;;;;;;8.73;4.68;;;5.30;99.90;;;;;;5072760;28;20045;-75
2021/01/04 11:37:53;;;;;;;6.75;3.45;;;5.30;99.90;;;;;;5072691;28;20056;-77
2021/01/04 11:40:19;;;;;;;4.18;2.33;;;5.30;99.90;;;;;;5073076;28;20040;-74
2021/01/04 11:42:45;;;;;;;7.57;3.53;;;5.20;99.90;;;;;;5072822;28;20041;-74
2021/01/04 11:45:17;;;;;;;4.03;2.35;;;5.20;99.90;;;;;;5072691;28;20469;-72
2021/01/04 11:47:43;;;;;;;6.50;2.50;;;5.20;99.90;;;;;;5074170;28;20040;-82
2021/01/04 11:50:09;;;;;;;9.52;3.28;;;5.20;99.90;;;;;;5072666;28;20044;-73
2021/01/04 11:52:36;;;;;;;4.80;2.65;;;5.30;99.90;;;;;;5072679;28;20025;-74
2021/01/04 11:55:05;;;;;;;4.60;2.70;;;5.30;99.90;;;;;;5072617;28;20033;-73
2021/01/04 11:57:30;;;;;;;5.50;2.10;;;5.30;99.90;;;;;;5072567;28;20037;-71
2021/01/04 11:59:56;;;;;;;4.05;2.15;;;5.30;99.90;;;;;;5073331;28;20035;-72
2021/01/04 12:02:22;;;;;;;2.35;1.70;;;5.20;99.90;;;;;;5072081;28;20048;-73
2021/01/04 12:04:47;;;;;;;3.22;2.10;;;5.20;99.90;;;;;;5072463;28;20043;-74
2021/01/04 12:07:15;;;;;;;8.80;3.35;;;5.20;99.90;;;;;;5071514;28;20073;-73
2021/01/04 12:09:40;;;;;;;6.80;3.13;;;5.20;99.90;;;;;;5071495;28;20524;-73
2021/01/04 12:12:08;;;;;;;5.70;2.47;;;5.20;99.90;;;;;;5072886;28;20048;-73
2021/01/04 12:14:34;;;;;;;3.75;2.25;;;5.20;99.90;;;;;;5070700;28;20032;-71
2021/01/04 12:17:03;;;;;;;3.85;2.25;;;5.20;99.90;;;;;;5072109;28;20040;-73
2021/01/04 12:19:29;;;;;;;3.42;2.25;;;5.20;99.90;;;;;;5072060;28;20033;-72
2021/01/04 12:22:00;;;;;;;2.53;1.73;;;5.10;99.90;;;;;;5072183;28;20033;-71
2021/01/04 12:24:26;;;;;;;3.72;2.00;;;5.20;99.90;;;;;;5072251;28;20032;-70
2021/01/04 12:26:51;;;;;;;2.92;2.03;;;5.20;99.90;;;;;;5073541;28;20040;-71
2021/01/04 12:29:18;;;;;;;2.50;1.73;;;5.20;99.90;;;;;;5072387;28;20048;-74
2021/01/04 12:31:44;;;;;;;2.10;1.63;;;5.10;99.90;;;;;;5072045;28;20029;-71
2021/01/04 12:34:10;;;;;;;5.72;2.05;;;5.10;99.90;;;;;;5071869;28;20378;-72
2021/01/04 12:36:35;;;;;;;2.83;2.00;;;5.20;99.90;;;;;;5071392;28;20488;-70
2021/01/04 12:39:01;;;;;;;3.20;1.85;;;5.20;99.90;;;;;;5073609;28;20033;-72
2021/01/04 12:41:27;;;;;;;6.38;2.33;;;5.20;99.90;;;;;;5071064;28;20048;-72
2021/01/04 12:43:52;;;;;;;3.92;1.90;;;5.20;99.90;;;;;;5071554;28;20051;-70
2021/01/04 12:46:18;;;;;;;3.10;1.70;;;5.20;99.90;;;;;;5071221;28;20055;-72
2021/01/04 12:48:44;;;;;;;3.25;1.90;;;5.20;99.90;;;;;;5071621;28;20127;-71
2021/01/04 12:51:12;;;;;;;3.53;1.88;;;5.10;99.90;;;;;;5070737;28;20028;-73
2021/01/04 12:53:38;;;;;;;3.38;2.05;;;5.10;99.90;;;;;;5072364;28;20027;-72
2021/01/04 12:56:07;;;;;;;2.63;1.77;;;5.10;99.90;;;;;;5070671;28;20041;-71
2021/01/04 12:58:33;;;;;;;2.03;1.40;;;5.20;99.90;;;;;;5071502;28;20616;-72
2021/01/04 13:00:59;;;;;;;2.67;1.23;;;5.10;99.90;;;;;;5071265;28;20129;-71
2021/01/04 13:03:25;;;;;;;3.10;1.65;;;5.10;99.90;;;;;;5071253;28;20021;-73
2021/01/04 13:05:50;;;;;;;3.30;1.73;;;5.10;99.90;;;;;;5072268;28;20166;-72
2021/01/04 13:08:16;;;;;;;4.00;2.13;;;5.10;99.90;;;;;;5071635;28;20776;-72
2021/01/04 13:10:42;;;;;;;3.53;2.15;;;5.00;99.90;;;;;;5070657;28;20039;-72
2021/01/04 13:13:08;;;;;;;4.07;1.88;;;4.90;99.90;;;;;;5071717;28;20028;-72
2021/01/04 13:15:33;;;;;;;2.05;1.60;;;5.00;99.90;;;;;;5071344;28;20118;-72
2021/01/04 13:17:59;;;;;;;3.15;1.90;;;5.00;99.90;;;;;;5073106;28;20021;-71
2021/01/04 13:20:24;;;;;;;3.88;1.63;;;5.00;99.90;;;;;;5071555;28;20361;-72
2021/01/04 13:22:50;;;;;;;4.22;1.83;;;5.00;99.90;;;;;;5071506;28;20047;-70
2021/01/04 13:25:16;;;;;;;3.30;1.95;;;5.10;99.90;;;;;;5068659;28;20032;-70
2021/01/04 13:27:42;;;;;;;3.17;2.33;;;5.10;99.90;;;;;;5071448;28;20094;-76
2021/01/04 13:30:08;;;;;;;2.28;1.63;;;5.10;99.90;;;;;;5072994;28;20032;-69
2021/01/04 13:32:34;;;;;;;4.13;2.08;;;5.00;99.90;;;;;;5070238;28;20040;-70
2021/01/04 13:35:00;;;;;;;2.78;1.98;;;5.00;99.90;;;;;;5071156;28;20098;-71
2021/01/04 13:37:26;;;;;;;3.47;2.33;;;5.00;99.90;;;;;;5071118;28;20059;-71
2021/01/04 13:39:51;;;;;;;4.72;2.55;;;5.00;99.90;;;;;;5071142;28;20111;-72
2021/01/04 13:42:18;;;;;;;4.05;2.47;;;5.10;99.90;;;;;;5070738;28;20032;-71
2021/01/04 13:44:44;;;;;;;3.70;2.05;;;5.10;99.90;;;;;;5072641;28;20082;-72